KBBD

Curtis Field Airport

Brady, Texas, USA
METAR KBBD 252215Z AUTO 26010KT 10SM FEW080 FEW090 34/15 A2990 RMK AO2
Observed Flight Rules
May-25 @ 22:15 UTC (19 minutes ago) Visual Flight Rules
Wind Visibility Clouds
260° at 10 knots 10 miles
  • Few at 8,000' AGL
  • Few at 9,000' AGL
Temperatures Readings
Current 34°C / 93°F
Dewpoint 15°C / 59°F
Humidity 32%
Altimeter 29.9" Hg
Pressure 1013 hPa
Elevation 557
METAR KBBD 252215Z AUTO 26010KT 10SM FEW080 FEW090 34/15 A2990 RMK AO2
Observed Flight Rules
May-25 @ 22:15 UTC
(19 minutes ago)
VFR
Wind Visibility
260° at 10 knots 10 miles
Clouds
  • Few at 8,000' AGL
  • Few at 9,000' AGL
Temperature Dewpoint
34°C / 93°F 15°C / 59°F
Humidity Altimeter Pressure
32% 29.9" Hg 1013 hPa